sensor_id;sensor_type;location;lat;lon;timestamp;P1;durP1;ratioP1;P2;durP2;ratioP2
64225;SDS011;50545;56.064;26.178;2023-08-24T00:00:53;0.93;;;0.93;;
64225;SDS011;50545;56.064;26.178;2023-08-24T00:03:21;2.35;;;1.27;;
64225;SDS011;50545;56.064;26.178;2023-08-24T00:05:49;1.27;;;1.17;;
64225;SDS011;50545;56.064;26.178;2023-08-24T00:08:18;1.40;;;1.08;;
64225;SDS011;50545;56.064;26.178;2023-08-24T00:10:46;1.63;;;1.13;;
64225;SDS011;50545;56.064;26.178;2023-08-24T00:13:13;1.40;;;1.30;;
64225;SDS011;50545;56.064;26.178;2023-08-24T00:15:42;1.50;;;1.25;;
64225;SDS011;50545;56.064;26.178;2023-08-24T00:18:09;1.30;;;1.08;;
64225;SDS011;50545;56.064;26.178;2023-08-24T00:20:37;1.45;;;1.30;;
64225;SDS011;50545;56.064;26.178;2023-08-24T00:23:04;1.08;;;1.00;;
64225;SDS011;50545;56.064;26.178;2023-08-24T00:25:32;1.15;;;1.05;;
64225;SDS011;50545;56.064;26.178;2023-08-24T00:27:59;3.10;;;1.20;;
64225;SDS011;50545;56.064;26.178;2023-08-24T00:30:27;1.20;;;1.08;;
64225;SDS011;50545;56.064;26.178;2023-08-24T00:32:54;1.90;;;1.20;;
64225;SDS011;50545;56.064;26.178;2023-08-24T00:35:22;0.93;;;0.90;;
64225;SDS011;50545;56.064;26.178;2023-08-24T00:37:50;1.10;;;1.05;;
64225;SDS011;50545;56.064;26.178;2023-08-24T00:40:17;1.45;;;1.20;;
64225;SDS011;50545;56.064;26.178;2023-08-24T00:42:45;1.00;;;1.00;;
64225;SDS011;50545;56.064;26.178;2023-08-24T00:45:14;1.27;;;1.05;;
64225;SDS011;50545;56.064;26.178;2023-08-24T00:47:45;1.15;;;1.05;;
64225;SDS011;50545;56.064;26.178;2023-08-24T00:50:16;1.33;;;1.23;;
64225;SDS011;50545;56.064;26.178;2023-08-24T00:52:44;1.27;;;1.13;;
64225;SDS011;50545;56.064;26.178;2023-08-24T00:55:13;1.10;;;1.00;;
64225;SDS011;50545;56.064;26.178;2023-08-24T00:57:41;1.30;;;1.20;;
64225;SDS011;50545;56.064;26.178;2023-08-24T01:00:09;1.20;;;1.10;;
64225;SDS011;50545;56.064;26.178;2023-08-24T01:02:38;1.27;;;1.02;;
64225;SDS011;50545;56.064;26.178;2023-08-24T01:05:06;1.25;;;0.90;;
64225;SDS011;50545;56.064;26.178;2023-08-24T01:07:34;1.15;;;1.05;;
64225;SDS011;50545;56.064;26.178;2023-08-24T01:10:04;1.10;;;0.95;;
64225;SDS011;50545;56.064;26.178;2023-08-24T01:15:19;0.93;;;0.90;;
64225;SDS011;50545;56.064;26.178;2023-08-24T01:17:49;1.10;;;1.00;;
64225;SDS011;50545;56.064;26.178;2023-08-24T01:20:19;0.93;;;0.75;;
64225;SDS011;50545;56.064;26.178;2023-08-24T01:28:32;0.95;;;0.95;;
64225;SDS011;50545;56.064;26.178;2023-08-24T01:31:00;0.80;;;0.80;;
64225;SDS011;50545;56.064;26.178;2023-08-24T01:33:27;0.90;;;0.90;;
64225;SDS011;50545;56.064;26.178;2023-08-24T01:35:55;0.90;;;0.88;;
64225;SDS011;50545;56.064;26.178;2023-08-24T01:38:22;1.00;;;0.95;;
64225;SDS011;50545;56.064;26.178;2023-08-24T01:43:36;1.30;;;1.10;;
64225;SDS011;50545;56.064;26.178;2023-08-24T01:46:10;1.13;;;1.08;;
64225;SDS011;50545;56.064;26.178;2023-08-24T01:48:42;2.08;;;0.98;;
64225;SDS011;50545;56.064;26.178;2023-08-24T01:51:11;1.35;;;1.10;;
64225;SDS011;50545;56.064;26.178;2023-08-24T01:53:39;1.05;;;0.88;;
64225;SDS011;50545;56.064;26.178;2023-08-24T01:56:08;1.02;;;0.98;;
64225;SDS011;50545;56.064;26.178;2023-08-24T01:58:36;1.07;;;1.00;;
64225;SDS011;50545;56.064;26.178;2023-08-24T02:01:04;1.65;;;1.10;;
64225;SDS011;50545;56.064;26.178;2023-08-24T02:03:33;0.60;;;0.60;;
64225;SDS011;50545;56.064;26.178;2023-08-24T02:06:01;0.80;;;0.80;;
64225;SDS011;50545;56.064;26.178;2023-08-24T02:08:29;1.20;;;1.10;;
64225;SDS011;50545;56.064;26.178;2023-08-24T02:10:57;0.82;;;0.82;;
64225;SDS011;50545;56.064;26.178;2023-08-24T02:13:25;0.85;;;0.85;;
64225;SDS011;50545;56.064;26.178;2023-08-24T02:16:05;0.90;;;0.82;;
64225;SDS011;50545;56.064;26.178;2023-08-24T02:18:35;1.10;;;1.00;;
64225;SDS011;50545;56.064;26.178;2023-08-24T02:21:07;1.17;;;1.08;;
64225;SDS011;50545;56.064;26.178;2023-08-24T02:23:39;1.67;;;1.25;;
64225;SDS011;50545;56.064;26.178;2023-08-24T02:26:07;1.65;;;1.00;;
64225;SDS011;50545;56.064;26.178;2023-08-24T02:28:35;1.40;;;1.20;;
64225;SDS011;50545;56.064;26.178;2023-08-24T02:31:04;1.20;;;1.10;;
64225;SDS011;50545;56.064;26.178;2023-08-24T02:33:32;2.80;;;1.13;;
64225;SDS011;50545;56.064;26.178;2023-08-24T02:36:00;1.23;;;1.10;;
64225;SDS011;50545;56.064;26.178;2023-08-24T02:38:27;1.20;;;1.10;;
64225;SDS011;50545;56.064;26.178;2023-08-24T02:41:01;1.05;;;0.98;;
64225;SDS011;50545;56.064;26.178;2023-08-24T02:43:30;2.13;;;1.40;;
64225;SDS011;50545;56.064;26.178;2023-08-24T02:46:01;1.88;;;1.40;;
64225;SDS011;50545;56.064;26.178;2023-08-24T02:48:33;1.02;;;0.95;;
64225;SDS011;50545;56.064;26.178;2023-08-24T02:51:02;2.15;;;1.10;;
64225;SDS011;50545;56.064;26.178;2023-08-24T02:53:32;2.60;;;1.35;;
64225;SDS011;50545;56.064;26.178;2023-08-24T02:55:59;1.63;;;1.35;;
64225;SDS011;50545;56.064;26.178;2023-08-24T02:58:28;2.35;;;1.30;;
64225;SDS011;50545;56.064;26.178;2023-08-24T03:00:56;1.55;;;1.33;;
64225;SDS011;50545;56.064;26.178;2023-08-24T03:03:24;1.90;;;1.17;;
64225;SDS011;50545;56.064;26.178;2023-08-24T03:05:55;2.08;;;1.58;;
64225;SDS011;50545;56.064;26.178;2023-08-24T03:08:23;1.38;;;1.27;;
64225;SDS011;50545;56.064;26.178;2023-08-24T03:10:51;1.90;;;1.45;;
64225;SDS011;50545;56.064;26.178;2023-08-24T03:13:19;2.20;;;1.50;;
64225;SDS011;50545;56.064;26.178;2023-08-24T03:15:47;1.70;;;1.38;;
64225;SDS011;50545;56.064;26.178;2023-08-24T03:18:16;1.45;;;1.35;;
64225;SDS011;50545;56.064;26.178;2023-08-24T03:20:44;1.10;;;1.05;;
64225;SDS011;50545;56.064;26.178;2023-08-24T03:23:12;1.65;;;1.40;;
64225;SDS011;50545;56.064;26.178;2023-08-24T03:25:40;1.67;;;1.33;;
64225;SDS011;50545;56.064;26.178;2023-08-24T03:28:09;4.45;;;1.63;;
64225;SDS011;50545;56.064;26.178;2023-08-24T03:30:37;1.40;;;1.30;;
64225;SDS011;50545;56.064;26.178;2023-08-24T03:33:06;1.50;;;1.40;;
64225;SDS011;50545;56.064;26.178;2023-08-24T03:35:33;2.53;;;1.50;;
64225;SDS011;50545;56.064;26.178;2023-08-24T03:38:02;1.85;;;1.30;;
64225;SDS011;50545;56.064;26.178;2023-08-24T03:40:31;1.08;;;0.93;;
64225;SDS011;50545;56.064;26.178;2023-08-24T03:42:58;1.38;;;1.27;;
64225;SDS011;50545;56.064;26.178;2023-08-24T03:45:26;1.55;;;1.40;;
64225;SDS011;50545;56.064;26.178;2023-08-24T03:47:53;1.10;;;1.00;;
64225;SDS011;50545;56.064;26.178;2023-08-24T03:50:21;1.77;;;1.40;;
64225;SDS011;50545;56.064;26.178;2023-08-24T03:52:50;1.13;;;0.95;;
64225;SDS011;50545;56.064;26.178;2023-08-24T03:55:17;3.38;;;1.50;;
64225;SDS011;50545;56.064;26.178;2023-08-24T03:57:45;2.55;;;1.20;;
64225;SDS011;50545;56.064;26.178;2023-08-24T04:00:13;1.92;;;1.50;;
64225;SDS011;50545;56.064;26.178;2023-08-24T04:02:41;1.85;;;1.42;;
64225;SDS011;50545;56.064;26.178;2023-08-24T04:05:09;1.40;;;1.30;;
64225;SDS011;50545;56.064;26.178;2023-08-24T04:07:37;2.63;;;1.45;;
64225;SDS011;50545;56.064;26.178;2023-08-24T04:10:06;2.88;;;1.50;;
64225;SDS011;50545;56.064;26.178;2023-08-24T04:12:34;1.45;;;1.17;;
64225;SDS011;50545;56.064;26.178;2023-08-24T04:15:02;1.85;;;1.50;;
64225;SDS011;50545;56.064;26.178;2023-08-24T04:17:30;2.13;;;1.50;;
64225;SDS011;50545;56.064;26.178;2023-08-24T04:19:57;1.92;;;1.33;;
64225;SDS011;50545;56.064;26.178;2023-08-24T04:22:25;2.20;;;1.48;;
64225;SDS011;50545;56.064;26.178;2023-08-24T04:24:52;1.63;;;1.33;;
64225;SDS011;50545;56.064;26.178;2023-08-24T04:27:20;2.22;;;1.52;;
64225;SDS011;50545;56.064;26.178;2023-08-24T04:29:48;1.50;;;1.25;;
64225;SDS011;50545;56.064;26.178;2023-08-24T04:32:16;2.67;;;1.60;;
64225;SDS011;50545;56.064;26.178;2023-08-24T04:34:44;2.28;;;1.50;;
64225;SDS011;50545;56.064;26.178;2023-08-24T04:37:12;3.75;;;1.08;;
64225;SDS011;50545;56.064;26.178;2023-08-24T04:39:39;2.47;;;1.70;;
64225;SDS011;50545;56.064;26.178;2023-08-24T04:42:06;1.58;;;1.40;;
64225;SDS011;50545;56.064;26.178;2023-08-24T04:44:34;1.90;;;1.40;;
64225;SDS011;50545;56.064;26.178;2023-08-24T04:47:01;1.42;;;1.20;;
64225;SDS011;50545;56.064;26.178;2023-08-24T04:49:31;1.42;;;1.27;;
64225;SDS011;50545;56.064;26.178;2023-08-24T04:54:27;2.10;;;1.50;;
64225;SDS011;50545;56.064;26.178;2023-08-24T04:56:54;1.33;;;1.23;;
64225;SDS011;50545;56.064;26.178;2023-08-24T04:59:21;1.63;;;1.30;;
64225;SDS011;50545;56.064;26.178;2023-08-24T05:01:49;1.48;;;1.20;;
64225;SDS011;50545;56.064;26.178;2023-08-24T05:04:17;3.83;;;1.30;;
64225;SDS011;50545;56.064;26.178;2023-08-24T05:06:44;3.58;;;1.48;;
64225;SDS011;50545;56.064;26.178;2023-08-24T05:09:12;2.42;;;1.38;;
64225;SDS011;50545;56.064;26.178;2023-08-24T05:11:39;1.92;;;1.40;;
64225;SDS011;50545;56.064;26.178;2023-08-24T05:14:07;2.40;;;1.45;;
64225;SDS011;50545;56.064;26.178;2023-08-24T05:16:34;2.08;;;1.52;;
64225;SDS011;50545;56.064;26.178;2023-08-24T05:19:02;1.52;;;1.30;;
64225;SDS011;50545;56.064;26.178;2023-08-24T05:21:30;1.42;;;1.15;;
64225;SDS011;50545;56.064;26.178;2023-08-24T05:23:57;1.92;;;1.38;;
64225;SDS011;50545;56.064;26.178;2023-08-24T05:26:25;1.48;;;1.35;;
64225;SDS011;50545;56.064;26.178;2023-08-24T05:28:52;1.45;;;1.27;;
64225;SDS011;50545;56.064;26.178;2023-08-24T05:31:20;1.30;;;1.20;;
64225;SDS011;50545;56.064;26.178;2023-08-24T05:33:47;1.77;;;1.50;;
64225;SDS011;50545;56.064;26.178;2023-08-24T05:36:15;2.97;;;1.48;;
64225;SDS011;50545;56.064;26.178;2023-08-24T05:38:42;1.88;;;1.50;;
64225;SDS011;50545;56.064;26.178;2023-08-24T05:41:31;2.38;;;1.42;;
64225;SDS011;50545;56.064;26.178;2023-08-24T05:43:58;1.92;;;1.23;;
64225;SDS011;50545;56.064;26.178;2023-08-24T05:46:26;2.20;;;1.25;;
64225;SDS011;50545;56.064;26.178;2023-08-24T05:48:53;1.70;;;1.23;;
64225;SDS011;50545;56.064;26.178;2023-08-24T05:51:25;1.92;;;1.40;;
64225;SDS011;50545;56.064;26.178;2023-08-24T05:53:52;1.55;;;1.30;;
64225;SDS011;50545;56.064;26.178;2023-08-24T05:56:25;3.50;;;1.67;;
64225;SDS011;50545;56.064;26.178;2023-08-24T05:58:53;1.52;;;1.42;;
64225;SDS011;50545;56.064;26.178;2023-08-24T06:01:22;2.42;;;1.63;;
64225;SDS011;50545;56.064;26.178;2023-08-24T06:03:49;2.42;;;1.58;;
64225;SDS011;50545;56.064;26.178;2023-08-24T06:06:17;2.60;;;1.75;;
64225;SDS011;50545;56.064;26.178;2023-08-24T06:08:45;3.05;;;1.75;;
64225;SDS011;50545;56.064;26.178;2023-08-24T06:11:12;1.85;;;1.58;;
64225;SDS011;50545;56.064;26.178;2023-08-24T06:13:39;2.40;;;1.65;;
64225;SDS011;50545;56.064;26.178;2023-08-24T06:16:07;2.05;;;1.50;;
64225;SDS011;50545;56.064;26.178;2023-08-24T06:18:34;2.15;;;1.50;;
64225;SDS011;50545;56.064;26.178;2023-08-24T06:21:02;3.25;;;1.75;;
64225;SDS011;50545;56.064;26.178;2023-08-24T06:23:29;2.45;;;1.77;;
64225;SDS011;50545;56.064;26.178;2023-08-24T06:25:56;2.53;;;1.42;;
64225;SDS011;50545;56.064;26.178;2023-08-24T06:28:24;2.40;;;1.52;;
64225;SDS011;50545;56.064;26.178;2023-08-24T06:30:51;3.03;;;2.10;;
64225;SDS011;50545;56.064;26.178;2023-08-24T06:33:19;2.75;;;1.45;;
64225;SDS011;50545;56.064;26.178;2023-08-24T06:35:46;1.90;;;1.67;;
64225;SDS011;50545;56.064;26.178;2023-08-24T06:38:14;2.80;;;1.90;;
64225;SDS011;50545;56.064;26.178;2023-08-24T06:40:43;4.47;;;1.80;;
64225;SDS011;50545;56.064;26.178;2023-08-24T06:43:10;2.20;;;1.67;;
64225;SDS011;50545;56.064;26.178;2023-08-24T06:45:39;3.25;;;1.98;;
64225;SDS011;50545;56.064;26.178;2023-08-24T06:48:07;1.55;;;1.45;;
64225;SDS011;50545;56.064;26.178;2023-08-24T06:50:34;3.40;;;1.83;;
64225;SDS011;50545;56.064;26.178;2023-08-24T06:53:03;1.65;;;1.50;;
64225;SDS011;50545;56.064;26.178;2023-08-24T06:55:31;1.67;;;1.50;;
64225;SDS011;50545;56.064;26.178;2023-08-24T06:57:58;3.42;;;1.88;;
64225;SDS011;50545;56.064;26.178;2023-08-24T07:00:26;2.03;;;1.67;;
64225;SDS011;50545;56.064;26.178;2023-08-24T07:02:53;3.08;;;1.80;;
64225;SDS011;50545;56.064;26.178;2023-08-24T07:05:21;2.25;;;1.80;;
64225;SDS011;50545;56.064;26.178;2023-08-24T07:07:51;2.63;;;1.60;;
64225;SDS011;50545;56.064;26.178;2023-08-24T07:10:20;1.95;;;1.55;;
64225;SDS011;50545;56.064;26.178;2023-08-24T07:12:48;2.25;;;1.67;;
64225;SDS011;50545;56.064;26.178;2023-08-24T07:15:15;1.80;;;1.60;;
64225;SDS011;50545;56.064;26.178;2023-08-24T07:17:42;1.67;;;1.58;;
64225;SDS011;50545;56.064;26.178;2023-08-24T07:20:10;2.47;;;1.70;;
64225;SDS011;50545;56.064;26.178;2023-08-24T07:22:41;1.65;;;1.50;;
64225;SDS011;50545;56.064;26.178;2023-08-24T07:25:09;2.92;;;2.15;;
64225;SDS011;50545;56.064;26.178;2023-08-24T07:27:38;4.07;;;1.80;;
64225;SDS011;50545;56.064;26.178;2023-08-24T07:30:05;2.58;;;1.70;;
64225;SDS011;50545;56.064;26.178;2023-08-24T07:32:54;2.40;;;1.75;;
64225;SDS011;50545;56.064;26.178;2023-08-24T07:35:21;2.58;;;1.90;;
64225;SDS011;50545;56.064;26.178;2023-08-24T07:37:51;2.80;;;1.85;;
64225;SDS011;50545;56.064;26.178;2023-08-24T07:40:19;2.53;;;1.65;;
64225;SDS011;50545;56.064;26.178;2023-08-24T07:42:47;2.67;;;1.73;;
64225;SDS011;50545;56.064;26.178;2023-08-24T07:45:17;3.65;;;2.15;;
64225;SDS011;50545;56.064;26.178;2023-08-24T07:47:45;4.18;;;2.08;;
64225;SDS011;50545;56.064;26.178;2023-08-24T07:50:12;2.33;;;1.90;;
64225;SDS011;50545;56.064;26.178;2023-08-24T07:52:40;2.22;;;1.80;;
64225;SDS011;50545;56.064;26.178;2023-08-24T07:55:07;1.80;;;1.58;;
64225;SDS011;50545;56.064;26.178;2023-08-24T07:57:36;2.35;;;1.77;;
64225;SDS011;50545;56.064;26.178;2023-08-24T08:00:04;2.22;;;2.03;;
64225;SDS011;50545;56.064;26.178;2023-08-24T08:02:35;3.00;;;1.85;;
64225;SDS011;50545;56.064;26.178;2023-08-24T08:05:04;2.97;;;2.00;;
64225;SDS011;50545;56.064;26.178;2023-08-24T08:07:34;3.35;;;1.95;;
64225;SDS011;50545;56.064;26.178;2023-08-24T08:10:01;4.43;;;2.10;;
64225;SDS011;50545;56.064;26.178;2023-08-24T08:12:30;2.33;;;1.88;;
64225;SDS011;50545;56.064;26.178;2023-08-24T08:14:59;2.50;;;1.90;;
64225;SDS011;50545;56.064;26.178;2023-08-24T08:17:27;4.28;;;2.53;;
64225;SDS011;50545;56.064;26.178;2023-08-24T08:19:54;2.83;;;1.95;;
64225;SDS011;50545;56.064;26.178;2023-08-24T08:22:22;2.80;;;1.88;;
64225;SDS011;50545;56.064;26.178;2023-08-24T08:24:52;2.55;;;1.90;;
64225;SDS011;50545;56.064;26.178;2023-08-24T08:27:20;2.88;;;2.00;;
64225;SDS011;50545;56.064;26.178;2023-08-24T08:29:48;2.65;;;2.20;;
64225;SDS011;50545;56.064;26.178;2023-08-24T08:32:16;3.65;;;2.15;;
64225;SDS011;50545;56.064;26.178;2023-08-24T08:34:43;2.90;;;1.98;;
64225;SDS011;50545;56.064;26.178;2023-08-24T08:37:11;3.33;;;1.90;;
64225;SDS011;50545;56.064;26.178;2023-08-24T08:39:38;4.07;;;2.35;;
64225;SDS011;50545;56.064;26.178;2023-08-24T08:42:11;2.47;;;1.77;;
64225;SDS011;50545;56.064;26.178;2023-08-24T08:44:40;2.00;;;1.60;;
64225;SDS011;50545;56.064;26.178;2023-08-24T08:47:13;2.92;;;1.83;;
64225;SDS011;50545;56.064;26.178;2023-08-24T08:49:44;2.72;;;1.20;;
64225;SDS011;50545;56.064;26.178;2023-08-24T08:52:14;1.40;;;1.30;;
64225;SDS011;50545;56.064;26.178;2023-08-24T08:54:42;1.60;;;1.50;;
64225;SDS011;50545;56.064;26.178;2023-08-24T08:57:09;1.40;;;1.30;;
64225;SDS011;50545;56.064;26.178;2023-08-24T08:59:37;2.50;;;1.17;;
64225;SDS011;50545;56.064;26.178;2023-08-24T09:02:05;1.15;;;1.05;;
64225;SDS011;50545;56.064;26.178;2023-08-24T09:04:36;1.40;;;1.08;;
64225;SDS011;50545;56.064;26.178;2023-08-24T09:07:05;1.55;;;1.45;;
64225;SDS011;50545;56.064;26.178;2023-08-24T09:09:37;1.38;;;1.27;;
64225;SDS011;50545;56.064;26.178;2023-08-24T09:12:06;1.33;;;1.23;;
64225;SDS011;50545;56.064;26.178;2023-08-24T09:14:33;1.35;;;1.10;;
64225;SDS011;50545;56.064;26.178;2023-08-24T09:17:01;1.60;;;1.50;;
64225;SDS011;50545;56.064;26.178;2023-08-24T09:19:30;1.38;;;1.20;;
64225;SDS011;50545;56.064;26.178;2023-08-24T09:22:00;1.45;;;1.25;;
64225;SDS011;50545;56.064;26.178;2023-08-24T09:24:31;1.30;;;1.05;;
64225;SDS011;50545;56.064;26.178;2023-08-24T09:27:05;0.93;;;0.93;;
64225;SDS011;50545;56.064;26.178;2023-08-24T09:29:42;1.13;;;1.02;;
64225;SDS011;50545;56.064;26.178;2023-08-24T09:32:09;1.30;;;1.20;;
64225;SDS011;50545;56.064;26.178;2023-08-24T09:34:37;1.60;;;1.25;;
64225;SDS011;50545;56.064;26.178;2023-08-24T09:37:04;1.98;;;1.20;;
64225;SDS011;50545;56.064;26.178;2023-08-24T09:39:39;0.95;;;0.95;;
64225;SDS011;50545;56.064;26.178;2023-08-24T09:42:08;1.27;;;1.17;;
64225;SDS011;50545;56.064;26.178;2023-08-24T09:44:37;1.25;;;1.08;;
64225;SDS011;50545;56.064;26.178;2023-08-24T09:47:11;1.30;;;0.93;;
64225;SDS011;50545;56.064;26.178;2023-08-24T09:49:38;1.35;;;0.93;;
64225;SDS011;50545;56.064;26.178;2023-08-24T09:52:06;1.55;;;0.80;;
64225;SDS011;50545;56.064;26.178;2023-08-24T09:54:36;2.35;;;0.93;;
64225;SDS011;50545;56.064;26.178;2023-08-24T09:57:07;1.23;;;1.10;;
64225;SDS011;50545;56.064;26.178;2023-08-24T09:59:36;1.25;;;1.13;;
64225;SDS011;50545;56.064;26.178;2023-08-24T10:02:14;1.17;;;1.00;;
64225;SDS011;50545;56.064;26.178;2023-08-24T10:04:44;2.75;;;1.23;;
64225;SDS011;50545;56.064;26.178;2023-08-24T10:12:20;1.25;;;1.15;;
64225;SDS011;50545;56.064;26.178;2023-08-24T10:19:50;1.27;;;1.17;;
64225;SDS011;50545;56.064;26.178;2023-08-24T10:22:19;1.60;;;1.30;;
64225;SDS011;50545;56.064;26.178;2023-08-24T10:24:47;1.50;;;1.40;;
64225;SDS011;50545;56.064;26.178;2023-08-24T10:27:17;1.50;;;1.27;;
64225;SDS011;50545;56.064;26.178;2023-08-24T10:29:45;1.83;;;1.33;;
64225;SDS011;50545;56.064;26.178;2023-08-24T10:32:12;2.45;;;1.70;;
64225;SDS011;50545;56.064;26.178;2023-08-24T10:34:41;1.70;;;1.60;;
64225;SDS011;50545;56.064;26.178;2023-08-24T10:37:09;1.75;;;1.48;;
64225;SDS011;50545;56.064;26.178;2023-08-24T10:39:46;1.73;;;1.50;;
64225;SDS011;50545;56.064;26.178;2023-08-24T10:42:14;1.95;;;1.75;;
64225;SDS011;50545;56.064;26.178;2023-08-24T10:44:44;2.03;;;1.60;;
64225;SDS011;50545;56.064;26.178;2023-08-24T10:47:22;2.80;;;1.88;;
64225;SDS011;50545;56.064;26.178;2023-08-24T10:52:22;2.72;;;1.77;;
64225;SDS011;50545;56.064;26.178;2023-08-24T10:54:50;2.83;;;1.83;;
64225;SDS011;50545;56.064;26.178;2023-08-24T10:57:23;1.85;;;1.73;;
64225;SDS011;50545;56.064;26.178;2023-08-24T11:00:07;1.98;;;1.60;;
64225;SDS011;50545;56.064;26.178;2023-08-24T11:02:45;1.75;;;1.45;;
64225;SDS011;50545;56.064;26.178;2023-08-24T11:05:22;3.78;;;1.77;;
64225;SDS011;50545;56.064;26.178;2023-08-24T11:07:52;2.67;;;1.85;;
64225;SDS011;50545;56.064;26.178;2023-08-24T11:10:45;3.35;;;1.98;;
64225;SDS011;50545;56.064;26.178;2023-08-24T11:13:14;2.55;;;1.98;;
64225;SDS011;50545;56.064;26.178;2023-08-24T11:15:42;2.38;;;1.88;;
64225;SDS011;50545;56.064;26.178;2023-08-24T11:18:32;3.03;;;2.10;;
64225;SDS011;50545;56.064;26.178;2023-08-24T11:21:06;2.33;;;1.75;;
64225;SDS011;50545;56.064;26.178;2023-08-24T11:23:33;2.13;;;1.80;;
64225;SDS011;50545;56.064;26.178;2023-08-24T11:26:02;3.08;;;2.05;;
64225;SDS011;50545;56.064;26.178;2023-08-24T11:28:30;3.28;;;2.15;;
64225;SDS011;50545;56.064;26.178;2023-08-24T11:30:58;3.28;;;2.10;;
64225;SDS011;50545;56.064;26.178;2023-08-24T11:33:29;3.13;;;2.10;;
64225;SDS011;50545;56.064;26.178;2023-08-24T11:36:02;2.75;;;1.80;;
64225;SDS011;50545;56.064;26.178;2023-08-24T11:41:14;3.53;;;2.30;;
64225;SDS011;50545;56.064;26.178;2023-08-24T11:43:43;2.58;;;2.08;;
64225;SDS011;50545;56.064;26.178;2023-08-24T11:46:12;2.15;;;1.90;;
64225;SDS011;50545;56.064;26.178;2023-08-24T11:48:40;4.45;;;2.40;;
64225;SDS011;50545;56.064;26.178;2023-08-24T11:51:11;1.73;;;1.63;;
64225;SDS011;50545;56.064;26.178;2023-08-24T11:53:44;3.15;;;1.90;;
64225;SDS011;50545;56.064;26.178;2023-08-24T11:56:14;2.47;;;1.77;;
64225;SDS011;50545;56.064;26.178;2023-08-24T11:58:48;2.30;;;1.58;;
64225;SDS011;50545;56.064;26.178;2023-08-24T12:01:17;1.80;;;1.65;;
64225;SDS011;50545;56.064;26.178;2023-08-24T12:03:45;3.05;;;1.70;;
64225;SDS011;50545;56.064;26.178;2023-08-24T12:06:16;2.78;;;1.88;;
64225;SDS011;50545;56.064;26.178;2023-08-24T12:08:47;4.03;;;2.38;;
64225;SDS011;50545;56.064;26.178;2023-08-24T12:11:19;4.68;;;2.30;;
64225;SDS011;50545;56.064;26.178;2023-08-24T12:13:51;2.97;;;2.10;;
64225;SDS011;50545;56.064;26.178;2023-08-24T12:16:20;2.63;;;1.90;;
64225;SDS011;50545;56.064;26.178;2023-08-24T12:18:53;2.20;;;1.85;;
64225;SDS011;50545;56.064;26.178;2023-08-24T12:21:26;2.03;;;1.58;;
64225;SDS011;50545;56.064;26.178;2023-08-24T12:23:56;2.28;;;1.80;;
64225;SDS011;50545;56.064;26.178;2023-08-24T12:26:33;3.72;;;2.00;;
64225;SDS011;50545;56.064;26.178;2023-08-24T12:29:03;3.70;;;2.38;;
64225;SDS011;50545;56.064;26.178;2023-08-24T12:31:35;3.25;;;1.98;;
64225;SDS011;50545;56.064;26.178;2023-08-24T12:34:04;3.38;;;2.13;;
64225;SDS011;50545;56.064;26.178;2023-08-24T12:36:33;1.90;;;1.63;;
64225;SDS011;50545;56.064;26.178;2023-08-24T12:39:03;2.80;;;1.95;;
64225;SDS011;50545;56.064;26.178;2023-08-24T12:41:31;2.83;;;2.08;;
64225;SDS011;50545;56.064;26.178;2023-08-24T12:43:59;2.97;;;2.35;;
64225;SDS011;50545;56.064;26.178;2023-08-24T12:46:35;2.25;;;1.80;;
64225;SDS011;50545;56.064;26.178;2023-08-24T12:49:03;4.43;;;2.13;;
64225;SDS011;50545;56.064;26.178;2023-08-24T12:51:30;3.40;;;2.15;;
64225;SDS011;50545;56.064;26.178;2023-08-24T12:53:58;3.60;;;2.13;;
64225;SDS011;50545;56.064;26.178;2023-08-24T12:56:25;3.00;;;2.17;;
64225;SDS011;50545;56.064;26.178;2023-08-24T12:58:53;3.50;;;2.13;;
64225;SDS011;50545;56.064;26.178;2023-08-24T13:01:20;3.28;;;2.03;;
64225;SDS011;50545;56.064;26.178;2023-08-24T13:03:48;3.13;;;2.20;;
64225;SDS011;50545;56.064;26.178;2023-08-24T13:06:15;2.65;;;1.92;;
64225;SDS011;50545;56.064;26.178;2023-08-24T13:11:13;1.73;;;1.58;;
64225;SDS011;50545;56.064;26.178;2023-08-24T13:13:40;2.45;;;1.88;;
64225;SDS011;50545;56.064;26.178;2023-08-24T13:16:08;3.22;;;2.15;;
64225;SDS011;50545;56.064;26.178;2023-08-24T13:18:35;3.10;;;1.95;;
64225;SDS011;50545;56.064;26.178;2023-08-24T13:21:03;2.03;;;1.85;;
64225;SDS011;50545;56.064;26.178;2023-08-24T13:23:30;2.28;;;1.80;;
64225;SDS011;50545;56.064;26.178;2023-08-24T13:25:57;2.42;;;2.03;;
64225;SDS011;50545;56.064;26.178;2023-08-24T13:28:26;1.98;;;1.77;;
64225;SDS011;50545;56.064;26.178;2023-08-24T13:30:54;3.42;;;1.80;;
64225;SDS011;50545;56.064;26.178;2023-08-24T13:33:21;3.33;;;1.90;;
64225;SDS011;50545;56.064;26.178;2023-08-24T13:35:49;3.08;;;2.10;;
64225;SDS011;50545;56.064;26.178;2023-08-24T13:38:16;3.22;;;2.20;;
64225;SDS011;50545;56.064;26.178;2023-08-24T13:40:43;4.25;;;2.42;;
64225;SDS011;50545;56.064;26.178;2023-08-24T13:43:15;3.95;;;2.10;;
64225;SDS011;50545;56.064;26.178;2023-08-24T13:45:42;3.28;;;1.85;;
64225;SDS011;50545;56.064;26.178;2023-08-24T13:48:10;2.38;;;1.77;;
64225;SDS011;50545;56.064;26.178;2023-08-24T13:50:37;2.20;;;2.00;;
64225;SDS011;50545;56.064;26.178;2023-08-24T13:53:05;2.42;;;2.00;;
64225;SDS011;50545;56.064;26.178;2023-08-24T13:55:32;2.80;;;2.00;;
64225;SDS011;50545;56.064;26.178;2023-08-24T13:57:59;3.15;;;2.13;;
64225;SDS011;50545;56.064;26.178;2023-08-24T14:00:27;3.00;;;2.00;;
64225;SDS011;50545;56.064;26.178;2023-08-24T14:02:54;1.90;;;1.75;;
64225;SDS011;50545;56.064;26.178;2023-08-24T14:05:22;2.55;;;1.73;;
64225;SDS011;50545;56.064;26.178;2023-08-24T14:07:49;2.50;;;2.00;;
64225;SDS011;50545;56.064;26.178;2023-08-24T14:10:17;1.83;;;1.67;;
64225;SDS011;50545;56.064;26.178;2023-08-24T14:12:45;2.33;;;1.80;;
64225;SDS011;50545;56.064;26.178;2023-08-24T14:15:13;2.13;;;1.90;;
64225;SDS011;50545;56.064;26.178;2023-08-24T14:17:40;1.75;;;1.63;;
64225;SDS011;50545;56.064;26.178;2023-08-24T14:20:08;1.98;;;1.80;;
64225;SDS011;50545;56.064;26.178;2023-08-24T14:22:36;4.13;;;2.03;;
64225;SDS011;50545;56.064;26.178;2023-08-24T14:25:03;2.53;;;2.03;;
64225;SDS011;50545;56.064;26.178;2023-08-24T14:27:31;2.67;;;2.05;;
64225;SDS011;50545;56.064;26.178;2023-08-24T14:29:58;4.68;;;2.50;;
64225;SDS011;50545;56.064;26.178;2023-08-24T14:32:26;3.95;;;2.30;;
64225;SDS011;50545;56.064;26.178;2023-08-24T14:34:54;5.07;;;2.33;;
64225;SDS011;50545;56.064;26.178;2023-08-24T14:37:21;4.32;;;2.20;;
64225;SDS011;50545;56.064;26.178;2023-08-24T14:39:48;3.58;;;2.15;;
64225;SDS011;50545;56.064;26.178;2023-08-24T14:42:16;2.53;;;2.00;;
64225;SDS011;50545;56.064;26.178;2023-08-24T14:44:43;3.80;;;2.00;;
64225;SDS011;50545;56.064;26.178;2023-08-24T14:47:11;2.13;;;1.75;;
64225;SDS011;50545;56.064;26.178;2023-08-24T14:49:38;1.70;;;1.60;;
64225;SDS011;50545;56.064;26.178;2023-08-24T14:52:05;2.50;;;1.85;;
64225;SDS011;50545;56.064;26.178;2023-08-24T14:54:33;1.95;;;1.60;;
64225;SDS011;50545;56.064;26.178;2023-08-24T14:57:00;2.13;;;1.77;;
64225;SDS011;50545;56.064;26.178;2023-08-24T14:59:29;2.53;;;1.80;;
64225;SDS011;50545;56.064;26.178;2023-08-24T15:01:57;2.55;;;1.83;;
64225;SDS011;50545;56.064;26.178;2023-08-24T15:04:27;2.28;;;1.88;;
64225;SDS011;50545;56.064;26.178;2023-08-24T15:06:54;2.20;;;1.90;;
64225;SDS011;50545;56.064;26.178;2023-08-24T15:09:22;2.00;;;1.80;;
64225;SDS011;50545;56.064;26.178;2023-08-24T15:11:49;2.58;;;2.17;;
64225;SDS011;50545;56.064;26.178;2023-08-24T15:14:16;2.13;;;1.90;;